Time;durP1;ratioP1;P1;durP2;ratioP2;P2;SDS_P1;SDS_P2;PMS_P1;PMS_P2;Temp;Humidity;BMP_temperature;BMP_pressure;BME280_temperature;BME280_humidity;BME280_pressure;Samples;Min_cycle;Max_cycle;Signal;HPM_P1;HPM_P2
2023/12/13 00:00:28;;;;;;;14.63;13.27;;;31.00;99.90;;;;;;4997952;28;20030;-68
2023/12/13 00:02:55;;;;;;;16.00;14.02;;;31.20;99.90;;;;;;4999489;28;20030;-67
2023/12/13 00:05:22;;;;;;;18.27;16.17;;;31.20;99.90;;;;;;4994852;28;20029;-67
2023/12/13 00:07:49;;;;;;;15.18;13.57;;;31.00;99.90;;;;;;5004770;28;20408;-67
2023/12/13 00:10:16;;;;;;;15.63;14.10;;;30.70;99.90;;;;;;5001625;28;20393;-67
2023/12/13 00:12:43;;;;;;;17.02;15.25;;;31.00;99.90;;;;;;4992276;28;20301;-68
2023/12/13 00:15:11;;;;;;;15.90;14.18;;;31.00;99.90;;;;;;4999933;28;20126;-66
2023/12/13 00:17:39;;;;;;;16.92;15.18;;;31.20;99.90;;;;;;5001952;28;20399;-67
2023/12/13 00:20:07;;;;;;;19.58;16.85;;;31.90;99.80;;;;;;4994718;28;20037;-68
2023/12/13 00:22:34;;;;;;;18.95;15.60;;;31.90;99.30;;;;;;4997910;28;20353;-68
2023/12/13 00:25:01;;;;;;;15.57;13.88;;;31.80;99.70;;;;;;5003250;28;20026;-68
2023/12/13 00:27:28;;;;;;;17.27;13.55;;;32.20;99.10;;;;;;4994902;28;20054;-68
2023/12/13 00:29:55;;;;;;;17.05;14.52;;;32.10;99.10;;;;;;5000241;28;20029;-67
2023/12/13 00:32:23;;;;;;;15.00;13.38;;;31.80;99.00;;;;;;4997207;28;20080;-67
2023/12/13 00:34:50;;;;;;;18.55;14.18;;;31.80;98.90;;;;;;4998363;28;20038;-68
2023/12/13 00:37:17;;;;;;;16.02;14.38;;;31.90;99.60;;;;;;4996313;28;20037;-68
2023/12/13 00:39:44;;;;;;;18.10;15.50;;;32.60;99.30;;;;;;4998470;28;20540;-69
2023/12/13 00:42:12;;;;;;;15.65;14.15;;;33.10;99.10;;;;;;4999466;28;20397;-68
2023/12/13 00:44:40;;;;;;;16.15;14.65;;;33.40;97.50;;;;;;5001227;28;20372;-66
2023/12/13 00:47:07;;;;;;;15.13;13.63;;;33.80;97.50;;;;;;4998734;28;20228;-67
2023/12/13 00:49:34;;;;;;;16.02;14.20;;;34.30;97.30;;;;;;4984355;28;20020;-67
2023/12/13 00:52:02;;;;;;;16.20;14.55;;;34.60;96.60;;;;;;4997518;28;20026;-67
2023/12/13 00:54:29;;;;;;;17.58;15.88;;;34.50;95.70;;;;;;4996425;28;20037;-68
2023/12/13 00:56:57;;;;;;;16.48;14.77;;;34.40;96.00;;;;;;5001563;28;20088;-67
2023/12/13 00:59:24;;;;;;;15.25;13.75;;;34.00;96.50;;;;;;5002232;28;20418;-67
2023/12/13 01:01:51;;;;;;;15.60;13.80;;;33.50;96.30;;;;;;4997335;28;20465;-67
2023/12/13 01:04:18;;;;;;;19.23;16.60;;;33.30;96.50;;;;;;4995752;28;20023;-66
2023/12/13 01:06:45;;;;;;;19.23;17.33;;;33.30;96.80;;;;;;5001626;28;20508;-67
2023/12/13 01:09:12;;;;;;;19.15;17.35;;;33.50;97.10;;;;;;4996476;28;20050;-66
2023/12/13 01:11:39;;;;;;;17.08;14.98;;;33.60;96.80;;;;;;5003776;28;20065;-68
2023/12/13 01:14:06;;;;;;;17.92;16.02;;;33.90;96.70;;;;;;4992353;28;20401;-65
2023/12/13 01:16:33;;;;;;;16.95;15.15;;;33.90;96.40;;;;;;4997881;28;20453;-66
2023/12/13 01:19:01;;;;;;;16.45;14.77;;;33.90;97.00;;;;;;4996333;28;20026;-67
2023/12/13 01:21:28;;;;;;;17.83;15.98;;;34.10;96.70;;;;;;5001214;28;20239;-66
2023/12/13 01:23:56;;;;;;;15.65;14.10;;;34.60;96.70;;;;;;4997313;28;20485;-65
2023/12/13 01:26:23;;;;;;;21.67;18.42;;;35.30;94.90;;;;;;4992250;28;20056;-68
2023/12/13 01:28:50;;;;;;;18.42;15.85;;;35.50;95.80;;;;;;4982257;28;20046;-68
2023/12/13 01:31:17;;;;;;;18.60;16.85;;;35.50;95.00;;;;;;4996512;28;20036;-70
2023/12/13 01:33:45;;;;;;;17.52;15.15;;;35.50;95.80;;;;;;4993552;28;20424;-70
2023/12/13 01:36:12;;;;;;;15.98;14.27;;;35.50;94.80;;;;;;5001451;28;20045;-67
2023/12/13 01:38:39;;;;;;;17.85;15.48;;;35.80;95.00;;;;;;4980030;28;20030;-69
2023/12/13 01:41:06;;;;;;;17.75;15.70;;;35.70;94.30;;;;;;4996493;28;20109;-68
2023/12/13 01:43:33;;;;;;;17.40;15.52;;;35.60;95.20;;;;;;4999167;28;20355;-67
2023/12/13 01:46:00;;;;;;;15.35;13.90;;;35.80;94.30;;;;;;5000576;28;20049;-70
2023/12/13 01:48:28;;;;;;;16.15;14.32;;;35.70;94.20;;;;;;4995812;28;20026;-69
2023/12/13 01:50:55;;;;;;;15.73;14.32;;;35.80;94.10;;;;;;4996766;28;20026;-69
2023/12/13 01:53:27;;;;;;;16.70;15.23;;;36.30;94.20;;;;;;4993137;28;20022;-71
2023/12/13 01:55:55;;;;;;;16.10;14.10;;;36.80;94.20;;;;;;5001417;28;20040;-68
2023/12/13 01:58:23;;;;;;;15.20;13.82;;;36.80;93.10;;;;;;5006043;28;20038;-72
2023/12/13 02:00:52;;;;;;;15.15;13.73;;;37.20;92.80;;;;;;4998198;28;20034;-68
2023/12/13 02:03:21;;;;;;;15.90;14.38;;;37.20;93.30;;;;;;4979413;28;20035;-68
2023/12/13 02:05:52;;;;;;;15.10;13.70;;;36.50;93.20;;;;;;5000273;28;20069;-66
2023/12/13 02:08:19;;;;;;;14.73;13.27;;;36.70;93.60;;;;;;4996870;28;20064;-69
2023/12/13 02:10:47;;;;;;;16.65;15.00;;;36.70;92.90;;;;;;4992233;28;20022;-66
2023/12/13 02:13:15;;;;;;;15.45;13.82;;;36.40;93.50;;;;;;5000303;28;20025;-67
2023/12/13 02:15:44;;;;;;;14.77;13.32;;;36.50;93.10;;;;;;5000282;28;20132;-68
2023/12/13 02:18:14;;;;;;;15.00;13.55;;;36.30;93.40;;;;;;4996693;28;20318;-66
2023/12/13 02:20:42;;;;;;;14.85;13.38;;;36.60;93.60;;;;;;4992330;28;20049;-69
2023/12/13 02:23:09;;;;;;;14.88;13.48;;;36.60;92.70;;;;;;4982697;28;20061;-68
2023/12/13 02:25:53;;;;;;;16.10;14.40;;;36.90;92.80;;;;;;4995824;28;20034;-66
2023/12/13 02:28:21;;;;;;;15.60;13.85;;;37.50;93.60;;;;;;4997399;28;20034;-73
2023/12/13 02:30:50;;;;;;;15.63;14.23;;;37.70;93.60;;;;;;4994897;28;20423;-68
2023/12/13 02:33:17;;;;;;;14.43;13.13;;;38.00;91.80;;;;;;4996827;28;20041;-66
2023/12/13 02:35:44;;;;;;;16.10;14.60;;;38.10;92.00;;;;;;4998431;28;20284;-66
2023/12/13 02:38:12;;;;;;;14.60;13.20;;;38.20;91.40;;;;;;5001650;28;20033;-70
2023/12/13 02:40:39;;;;;;;15.70;14.23;;;38.60;91.50;;;;;;4994394;28;20031;-68
2023/12/13 02:43:06;;;;;;;15.27;13.68;;;38.80;92.10;;;;;;4999228;28;20037;-67
2023/12/13 02:45:33;;;;;;;15.45;13.85;;;38.40;91.10;;;;;;4999056;28;20071;-65
2023/12/13 02:48:00;;;;;;;15.57;14.13;;;38.60;92.00;;;;;;4994741;28;20125;-68
2023/12/13 02:50:27;;;;;;;15.30;13.90;;;38.80;92.00;;;;;;4996893;28;20022;-69
2023/12/13 02:52:54;;;;;;;15.95;14.35;;;38.80;90.60;;;;;;4994639;28;20022;-69
2023/12/13 02:55:21;;;;;;;14.60;13.02;;;38.90;90.20;;;;;;4995412;28;20041;-70
2023/12/13 02:57:48;;;;;;;16.55;13.88;;;38.50;91.60;;;;;;5001149;28;20426;-66
2023/12/13 03:00:15;;;;;;;18.40;16.70;;;37.80;91.30;;;;;;4996769;28;20108;-67
2023/12/13 03:02:43;;;;;;;16.80;15.15;;;37.50;92.60;;;;;;4999799;28;20026;-71
2023/12/13 03:05:10;;;;;;;15.45;14.05;;;37.90;91.60;;;;;;5004048;28;20064;-67
2023/12/13 03:07:40;;;;;;;14.45;13.00;;;38.20;91.90;;;;;;5000068;28;20057;-69
2023/12/13 03:10:07;;;;;;;15.48;13.95;;;39.00;90.80;;;;;;5000978;28;20026;-69
2023/12/13 03:12:35;;;;;;;15.65;14.07;;;39.10;91.50;;;;;;5003156;28;20328;-66
2023/12/13 03:15:02;;;;;;;15.45;13.95;;;39.70;90.50;;;;;;5003307;28;20303;-67
2023/12/13 03:17:29;;;;;;;17.13;12.77;;;40.00;88.70;;;;;;5003355;28;20071;-75
2023/12/13 03:19:56;;;;;;;14.20;12.38;;;40.10;88.00;;;;;;5001158;28;20036;-68
2023/12/13 03:22:24;;;;;;;12.82;11.60;;;39.60;90.00;;;;;;5001189;28;20121;-72
2023/12/13 03:24:56;;;;;;;13.80;12.30;;;39.60;90.00;;;;;;4998756;28;20036;-65
2023/12/13 03:27:24;;;;;;;12.60;11.50;;;39.60;89.20;;;;;;5003451;28;20026;-64
2023/12/13 03:29:51;;;;;;;18.38;16.77;;;39.90;90.20;;;;;;4995545;28;20413;-71
2023/12/13 03:32:18;;;;;;;16.95;14.18;;;40.50;90.40;;;;;;4991051;28;20026;-64
2023/12/13 03:34:45;;;;;;;14.35;12.95;;;40.70;89.70;;;;;;4994855;28;20408;-63
2023/12/13 03:37:14;;;;;;;14.77;12.70;;;40.60;86.90;;;;;;4989905;28;20129;-72
2023/12/13 03:39:41;;;;;;;13.38;12.05;;;39.80;89.00;;;;;;4996575;28;20444;-67
2023/12/13 03:42:08;;;;;;;13.23;11.93;;;39.60;90.40;;;;;;5000192;28;20065;-66
2023/12/13 03:44:35;;;;;;;13.25;11.98;;;40.10;88.70;;;;;;5002633;28;20026;-65
2023/12/13 03:47:03;;;;;;;14.32;12.65;;;41.00;88.60;;;;;;5003598;28;20113;-73
2023/12/13 03:49:30;;;;;;;12.45;11.35;;;41.40;86.60;;;;;;5000590;28;20534;-65
2023/12/13 03:51:57;;;;;;;13.25;11.95;;;41.20;86.00;;;;;;5001226;28;20517;-66
2023/12/13 03:54:24;;;;;;;13.15;11.93;;;41.10;86.40;;;;;;5006217;28;20026;-68
2023/12/13 03:56:51;;;;;;;12.95;11.02;;;40.70;87.50;;;;;;4997864;28;20105;-69
2023/12/13 03:59:18;;;;;;;13.57;11.77;;;41.20;87.80;;;;;;5001347;28;20053;-66
2023/12/13 04:01:45;;;;;;;13.80;12.48;;;41.80;84.60;;;;;;5007392;28;20774;-73
2023/12/13 04:04:12;;;;;;;13.43;12.02;;;41.40;85.30;;;;;;5003759;28;20100;-64
2023/12/13 04:06:39;;;;;;;15.30;13.93;;;40.70;85.70;;;;;;5000159;28;20034;-73
2023/12/13 04:09:06;;;;;;;13.20;11.98;;;41.10;86.90;;;;;;5003528;28;20031;-65
2023/12/13 04:11:34;;;;;;;12.20;11.00;;;41.60;85.80;;;;;;4999075;28;20084;-68
2023/12/13 04:14:01;;;;;;;14.13;11.38;;;42.30;85.90;;;;;;4991665;28;20045;-68
2023/12/13 04:16:28;;;;;;;12.18;11.07;;;42.10;84.70;;;;;;4980786;28;20431;-67
2023/12/13 04:18:55;;;;;;;12.93;11.70;;;42.50;83.60;;;;;;4997919;28;20125;-73
2023/12/13 04:21:22;;;;;;;11.52;10.52;;;42.90;85.90;;;;;;4992649;28;20032;-66
2023/12/13 04:23:49;;;;;;;11.30;10.30;;;42.60;83.90;;;;;;4990225;28;20034;-66
2023/12/13 04:26:16;;;;;;;11.80;10.70;;;41.80;84.30;;;;;;4996388;28;20104;-65
2023/12/13 04:28:43;;;;;;;11.48;10.50;;;40.80;84.00;;;;;;4992193;28;20034;-66
2023/12/13 04:31:10;;;;;;;13.52;12.32;;;39.70;86.00;;;;;;4992687;28;20653;-66
2023/12/13 04:33:37;;;;;;;13.38;12.10;;;39.10;86.70;;;;;;5001973;28;20038;-74
2023/12/13 04:36:05;;;;;;;13.63;12.25;;;38.70;87.30;;;;;;5001685;28;20401;-69
2023/12/13 04:38:33;;;;;;;12.10;11.00;;;38.60;88.00;;;;;;4999512;28;20121;-68
2023/12/13 04:41:01;;;;;;;13.13;10.80;;;39.20;87.60;;;;;;4999733;28;20049;-67
2023/12/13 04:43:28;;;;;;;12.02;10.82;;;40.30;86.70;;;;;;5000653;28;20307;-69
2023/12/13 04:45:55;;;;;;;12.30;10.50;;;41.40;83.80;;;;;;5000852;28;20484;-65
2023/12/13 04:48:22;;;;;;;11.02;7.38;;;42.00;82.70;;;;;;5002252;28;20053;-66
2023/12/13 04:50:49;;;;;;;10.30;3.95;;;41.80;85.60;;;;;;4998799;28;20413;-66
2023/12/13 04:53:16;;;;;;;8.93;4.00;;;41.70;87.00;;;;;;4998551;28;20489;-70
2023/12/13 04:55:44;;;;;;;12.68;4.35;;;40.40;88.70;;;;;;5001228;28;20033;-73
2023/12/13 04:58:11;;;;;;;13.13;4.43;;;39.50;90.10;;;;;;4999684;28;20030;-70
2023/12/13 05:00:39;;;;;;;10.48;4.13;;;38.60;91.00;;;;;;4999968;28;20018;-71
2023/12/13 05:03:06;;;;;;;8.77;3.85;;;38.20;91.20;;;;;;5000393;28;20383;-69
2023/12/13 05:05:33;;;;;;;8.20;3.70;;;37.40;91.80;;;;;;4997963;28;20098;-69
2023/12/13 05:08:00;;;;;;;12.23;4.32;;;36.60;92.50;;;;;;5000560;28;20034;-66
2023/12/13 05:10:28;;;;;;;8.30;4.35;;;36.40;92.70;;;;;;4999693;28;20072;-69
2023/12/13 05:12:55;;;;;;;11.57;4.57;;;36.30;92.90;;;;;;5000637;28;20091;-67
2023/12/13 05:15:22;;;;;;;11.15;4.20;;;36.70;92.60;;;;;;5000213;28;20551;-68
2023/12/13 05:17:49;;;;;;;8.50;3.85;;;36.90;92.50;;;;;;4999822;28;20030;-68
2023/12/13 05:20:16;;;;;;;8.13;4.13;;;37.40;92.10;;;;;;4999720;28;20014;-70
2023/12/13 05:22:43;;;;;;;8.40;3.70;;;37.90;92.00;;;;;;4999762;28;20109;-65
2023/12/13 05:25:11;;;;;;;9.02;3.83;;;38.40;91.50;;;;;;4999002;28;20491;-67
2023/12/13 05:27:38;;;;;;;7.95;4.10;;;38.80;91.50;;;;;;4999357;28;20272;-72
2023/12/13 05:30:06;;;;;;;10.25;4.00;;;38.70;91.20;;;;;;4998924;28;20101;-67
2023/12/13 05:32:33;;;;;;;8.63;4.28;;;38.60;91.40;;;;;;4996243;28;20060;-67
2023/12/13 05:35:00;;;;;;;8.23;4.20;;;38.70;91.60;;;;;;4998877;28;20503;-67
2023/12/13 05:37:28;;;;;;;7.90;5.13;;;38.90;91.30;;;;;;4997988;28;20030;-67
2023/12/13 05:39:55;;;;;;;8.32;5.40;;;38.90;90.80;;;;;;5001545;28;20023;-68
2023/12/13 05:42:22;;;;;;;9.10;5.25;;;38.80;90.70;;;;;;4999150;28;20136;-68
2023/12/13 05:44:49;;;;;;;6.40;4.85;;;38.30;90.80;;;;;;5001603;28;20092;-67
2023/12/13 05:47:16;;;;;;;6.90;4.70;;;38.20;91.10;;;;;;4999517;28;20034;-71
2023/12/13 05:49:43;;;;;;;8.85;5.10;;;37.80;91.30;;;;;;5000300;28;20036;-68
2023/12/13 05:52:12;;;;;;;5.80;4.90;;;37.40;91.60;;;;;;5001580;28;20080;-74
2023/12/13 05:54:39;;;;;;;10.20;5.45;;;37.20;91.70;;;;;;4999517;28;20040;-69
2023/12/13 05:57:06;;;;;;;8.77;5.05;;;36.90;91.80;;;;;;4998773;28;20030;-74
2023/12/13 05:59:33;;;;;;;8.25;5.32;;;36.80;92.10;;;;;;5001802;28;20097;-68
2023/12/13 06:02:00;;;;;;;9.88;5.22;;;36.70;92.20;;;;;;4997822;28;20025;-69
2023/12/13 06:04:28;;;;;;;8.15;5.47;;;37.40;91.80;;;;;;4997330;28;20085;-68
2023/12/13 06:06:55;;;;;;;8.15;4.20;;;38.70;91.20;;;;;;5003348;28;20542;-67
2023/12/13 06:09:22;;;;;;;8.10;3.92;;;39.90;90.10;;;;;;5001467;28;20045;-72
2023/12/13 06:11:49;;;;;;;13.75;7.03;;;40.60;90.20;;;;;;4997734;28;20449;-69
2023/12/13 06:14:17;;;;;;;10.48;6.07;;;41.00;89.80;;;;;;4997391;28;20037;-67
2023/12/13 06:16:44;;;;;;;6.57;4.97;;;41.60;87.80;;;;;;4998726;28;20034;-68
2023/12/13 06:19:11;;;;;;;10.57;4.82;;;41.90;87.60;;;;;;4998172;28;20022;-70
2023/12/13 06:21:38;;;;;;;9.45;5.90;;;42.70;86.60;;;;;;4997672;28;20028;-68
2023/12/13 06:24:06;;;;;;;8.70;3.92;;;43.60;85.80;;;;;;4997657;28;20030;-69
2023/12/13 06:26:33;;;;;;;9.23;6.18;;;43.50;85.10;;;;;;4997257;28;20116;-72
2023/12/13 06:29:00;;;;;;;9.00;4.35;;;43.50;84.40;;;;;;4996771;28;20167;-68
2023/12/13 06:31:27;;;;;;;8.73;4.30;;;41.70;86.30;;;;;;4996783;28;20022;-67
2023/12/13 06:33:55;;;;;;;10.07;4.97;;;41.00;87.20;;;;;;4996472;28;20044;-69
2023/12/13 06:36:22;;;;;;;7.22;4.43;;;40.10;87.70;;;;;;4996943;28;20022;-68
2023/12/13 06:38:49;;;;;;;10.30;4.28;;;38.80;89.80;;;;;;4998954;28;20034;-71
2023/12/13 06:41:16;;;;;;;6.25;3.60;;;38.00;90.40;;;;;;4997196;28;20516;-68
2023/12/13 06:43:43;;;;;;;8.23;3.70;;;37.50;90.70;;;;;;4997666;28;20049;-69
2023/12/13 06:46:11;;;;;;;7.75;4.10;;;37.00;91.00;;;;;;4997718;28;20463;-69
2023/12/13 06:48:38;;;;;;;8.45;4.07;;;36.40;91.50;;;;;;4997909;28;20030;-69
2023/12/13 06:51:07;;;;;;;6.43;3.45;;;35.90;91.90;;;;;;4997878;28;20921;-67
2023/12/13 06:53:40;;;;;;;10.52;4.72;;;35.50;92.10;;;;;;4997530;28;20022;-68
2023/12/13 06:56:07;;;;;;;7.95;3.85;;;34.90;92.80;;;;;;4999711;28;20036;-69
2023/12/13 06:58:35;;;;;;;8.60;3.78;;;34.40;93.30;;;;;;4998398;28;20027;-69
2023/12/13 07:01:04;;;;;;;10.10;3.90;;;34.10;93.60;;;;;;4997051;28;20498;-69
2023/12/13 07:03:31;;;;;;;7.88;3.80;;;33.90;93.80;;;;;;4997509;28;20108;-69
2023/12/13 07:05:58;;;;;;;8.02;3.50;;;33.70;93.70;;;;;;5002619;28;20032;-67
2023/12/13 07:08:25;;;;;;;7.88;2.83;;;33.60;94.00;;;;;;5000462;28;20072;-67
2023/12/13 07:10:52;;;;;;;8.45;2.63;;;33.70;93.90;;;;;;4998123;28;20037;-69
2023/12/13 07:13:19;;;;;;;10.55;3.50;;;33.70;94.10;;;;;;4999752;28;20032;-70
2023/12/13 07:15:46;;;;;;;10.18;4.05;;;33.70;94.10;;;;;;5001178;28;20026;-71
2023/12/13 07:18:14;;;;;;;9.77;3.60;;;33.70;94.20;;;;;;4999711;28;20034;-71
2023/12/13 07:20:41;;;;;;;7.55;3.22;;;33.70;94.20;;;;;;4999771;28;20040;-71
2023/12/13 07:23:08;;;;;;;14.45;3.45;;;33.80;93.80;;;;;;4999958;28;20050;-72
2023/12/13 07:25:36;;;;;;;8.45;4.00;;;33.70;93.90;;;;;;4998389;28;20030;-68
2023/12/13 07:28:03;;;;;;;9.45;4.75;;;33.50;94.20;;;;;;4999093;28;20117;-68
2023/12/13 07:30:30;;;;;;;6.65;3.28;;;33.30;94.50;;;;;;4978749;28;20443;-66
2023/12/13 07:32:57;;;;;;;7.00;3.15;;;33.10;94.60;;;;;;4996610;28;20038;-66
2023/12/13 07:35:26;;;;;;;6.00;3.25;;;32.70;94.60;;;;;;4998697;28;20026;-65
2023/12/13 07:37:53;;;;;;;7.40;2.55;;;32.50;95.20;;;;;;4999926;28;20026;-68
2023/12/13 07:40:20;;;;;;;8.48;3.05;;;32.10;95.60;;;;;;4998429;28;20396;-67
2023/12/13 07:42:48;;;;;;;6.47;2.90;;;32.00;95.80;;;;;;5000692;28;20034;-68
2023/12/13 07:45:16;;;;;;;6.00;2.60;;;31.90;96.20;;;;;;5002432;28;20116;-67
2023/12/13 07:47:46;;;;;;;7.55;2.92;;;31.80;96.20;;;;;;5003544;28;20492;-68
2023/12/13 07:50:13;;;;;;;6.55;2.83;;;31.60;96.50;;;;;;4999695;28;20485;-74
2023/12/13 07:52:40;;;;;;;7.20;2.78;;;31.70;96.50;;;;;;5000992;28;20021;-71
2023/12/13 07:55:08;;;;;;;8.80;2.97;;;31.50;96.30;;;;;;5000811;28;20060;-70
2023/12/13 07:57:35;;;;;;;6.55;2.75;;;31.30;96.80;;;;;;4998077;28;20095;-64
2023/12/13 08:00:04;;;;;;;10.40;2.83;;;31.30;97.10;;;;;;4991270;28;20343;-74
2023/12/13 08:02:31;;;;;;;10.65;3.08;;;31.50;96.70;;;;;;4996239;28;20423;-70
2023/12/13 08:04:58;;;;;;;10.85;3.55;;;31.40;96.70;;;;;;5000394;28;20034;-70
2023/12/13 08:07:26;;;;;;;8.07;3.42;;;31.20;97.00;;;;;;4996816;28;20038;-66
2023/12/13 08:09:54;;;;;;;11.98;3.35;;;30.90;97.30;;;;;;5000540;28;20251;-74
2023/12/13 08:12:21;;;;;;;6.25;2.72;;;30.70;97.70;;;;;;4998556;28;20033;-68
2023/12/13 08:14:48;;;;;;;12.95;3.60;;;30.50;97.90;;;;;;4997461;28;20033;-67
2023/12/13 08:17:16;;;;;;;8.50;3.15;;;30.50;98.10;;;;;;4996155;28;20123;-67
2023/12/13 08:19:43;;;;;;;7.25;2.42;;;30.20;98.20;;;;;;4998814;28;20046;-63
2023/12/13 08:22:10;;;;;;;7.50;3.28;;;30.10;98.50;;;;;;4999091;28;20273;-68
2023/12/13 08:24:37;;;;;;;6.80;3.13;;;30.00;98.70;;;;;;4996629;28;20034;-66
2023/12/13 08:27:05;;;;;;;5.10;2.80;;;29.90;98.80;;;;;;4997235;28;20109;-67
2023/12/13 08:29:32;;;;;;;6.18;2.70;;;29.90;98.70;;;;;;4995313;28;20036;-73
2023/12/13 08:31:59;;;;;;;10.82;3.35;;;29.80;98.80;;;;;;4995817;28;20463;-65
2023/12/13 08:34:26;;;;;;;9.40;3.47;;;29.70;98.90;;;;;;4997726;28;20383;-69
2023/12/13 08:36:54;;;;;;;6.88;3.83;;;29.60;98.90;;;;;;4996256;28;20033;-63
2023/12/13 08:39:21;;;;;;;7.25;3.00;;;29.50;98.90;;;;;;4998314;28;20354;-69
2023/12/13 08:41:48;;;;;;;8.13;3.42;;;29.40;99.00;;;;;;4997592;28;20030;-66
2023/12/13 08:44:16;;;;;;;6.80;2.70;;;29.40;99.00;;;;;;4997305;28;20049;-66
2023/12/13 08:46:43;;;;;;;8.27;3.20;;;29.10;99.20;;;;;;4997461;28;20025;-65
2023/12/13 08:49:10;;;;;;;8.05;3.22;;;28.90;99.40;;;;;;5000076;28;20810;-73
2023/12/13 08:51:37;;;;;;;8.80;3.50;;;28.80;99.60;;;;;;5000599;28;20022;-65
2023/12/13 08:54:04;;;;;;;8.27;3.45;;;28.70;99.90;;;;;;4998971;28;20388;-63
2023/12/13 08:56:32;;;;;;;6.07;2.88;;;28.50;99.90;;;;;;4997423;28;20030;-67
2023/12/13 08:58:59;;;;;;;8.25;2.78;;;28.40;99.90;;;;;;4997385;28;20021;-65
2023/12/13 09:01:26;;;;;;;6.75;2.78;;;28.30;99.90;;;;;;4996106;28;20459;-70
2023/12/13 09:03:55;;;;;;;6.55;2.75;;;28.20;99.90;;;;;;4997626;28;20038;-65
2023/12/13 09:06:22;;;;;;;8.55;2.90;;;28.10;99.90;;;;;;4998634;28;20439;-67
2023/12/13 09:08:49;;;;;;;10.60;3.25;;;28.00;99.90;;;;;;4996195;28;20523;-72
2023/12/13 09:11:16;;;;;;;11.27;3.85;;;28.10;99.90;;;;;;4997044;28;20053;-72
2023/12/13 09:13:43;;;;;;;6.72;3.00;;;28.10;99.90;;;;;;4996671;28;20435;-63
2023/12/13 09:16:10;;;;;;;10.95;2.80;;;28.10;99.90;;;;;;4997868;28;20026;-63
2023/12/13 09:18:41;;;;;;;12.60;3.38;;;27.90;99.90;;;;;;4997986;28;20033;-72
2023/12/13 09:21:08;;;;;;;8.82;3.22;;;27.80;99.90;;;;;;4998186;28;20026;-63
2023/12/13 09:23:36;;;;;;;10.13;2.90;;;27.80;99.90;;;;;;4997897;28;20033;-68
2023/12/13 09:26:05;;;;;;;8.10;3.50;;;27.70;99.90;;;;;;4996675;28;20022;-72
2023/12/13 09:28:35;;;;;;;7.60;2.80;;;27.70;99.90;;;;;;4993934;28;20038;-64
2023/12/13 09:31:07;;;;;;;9.07;3.40;;;27.60;99.90;;;;;;4995006;28;20025;-66
2023/12/13 09:33:34;;;;;;;;;;;27.60;99.90;;;;;;5043946;23;20460;-66
2023/12/13 09:36:01;;;;;;;11.02;4.03;;;27.50;99.90;;;;;;5018319;28;20774;-64
2023/12/13 09:38:29;;;;;;;7.68;3.55;;;27.40;99.90;;;;;;5019146;28;20021;-63
2023/12/13 09:40:56;;;;;;;15.43;4.32;;;27.40;99.90;;;;;;5017240;28;21577;-66
2023/12/13 09:43:26;;;;;;;6.15;4.75;;;27.30;99.90;;;;;;5017679;28;20025;-67
2023/12/13 09:45:54;;;;;;;7.63;3.03;;;27.30;99.90;;;;;;5017651;28;20440;-66
2023/12/13 09:48:23;;;;;;;7.22;2.55;;;27.30;99.90;;;;;;5017821;28;20132;-69
2023/12/13 09:50:57;;;;;;;10.52;4.20;;;27.30;99.90;;;;;;5015255;28;21113;-66
2023/12/13 09:53:28;;;;;;;9.38;3.80;;;27.30;99.90;;;;;;5015991;28;20036;-64
2023/12/13 09:55:56;;;;;;;8.43;3.67;;;27.30;99.90;;;;;;5016721;28;20538;-66
2023/12/13 09:58:23;;;;;;;9.80;3.72;;;27.20;99.90;;;;;;5016427;28;20033;-64
2023/12/13 10:00:50;;;;;;;11.93;3.63;;;27.30;99.90;;;;;;5019500;28;20030;-72
2023/12/13 10:03:18;;;;;;;9.90;3.22;;;27.20;99.90;;;;;;5020757;28;20112;-64
2023/12/13 10:05:49;;;;;;;8.05;2.67;;;27.20;99.90;;;;;;5018968;28;20527;-65
2023/12/13 10:08:16;;;;;;;15.18;5.15;;;27.20;99.90;;;;;;5015663;28;20208;-74
2023/12/13 10:10:47;;;;;;;27.17;7.72;;;27.10;99.90;;;;;;5012786;28;20037;-63
2023/12/13 10:13:15;;;;;;;16.80;6.10;;;26.80;99.90;;;;;;5015001;28;20153;-70
2023/12/13 10:15:42;;;;;;;21.80;6.57;;;26.10;99.90;;;;;;5013304;28;20120;-62
2023/12/13 10:18:09;;;;;;;17.55;5.95;;;25.70;99.90;;;;;;5013250;28;20364;-63
2023/12/13 10:20:36;;;;;;;14.10;5.47;;;25.40;99.90;;;;;;5016577;28;20029;-68
2023/12/13 10:23:05;;;;;;;20.30;5.13;;;25.20;99.90;;;;;;5015663;28;20033;-64
2023/12/13 10:25:32;;;;;;;23.17;8.30;;;25.00;99.90;;;;;;5016047;28;20026;-70
2023/12/13 10:27:59;;;;;;;29.20;8.77;;;24.90;99.90;;;;;;5014709;28;20013;-69
2023/12/13 10:30:27;;;;;;;20.45;8.05;;;24.80;99.90;;;;;;5016339;28;20060;-63
2023/12/13 10:32:54;;;;;;;21.48;7.60;;;24.60;99.90;;;;;;5015269;28;20389;-70
2023/12/13 10:35:22;;;;;;;20.27;7.50;;;24.40;99.90;;;;;;5015127;28;20061;-64
2023/12/13 10:37:51;;;;;;;10.52;4.72;;;24.20;99.90;;;;;;5016622;28;20034;-64
2023/12/13 10:40:20;;;;;;;17.77;4.80;;;24.10;99.90;;;;;;5017818;28;20188;-64
2023/12/13 10:42:52;;;;;;;13.60;5.32;;;23.90;99.90;;;;;;5017596;28;20834;-73
2023/12/13 10:45:23;;;;;;;13.32;4.90;;;23.90;99.90;;;;;;5015535;28;20029;-70
2023/12/13 10:47:52;;;;;;;19.83;6.13;;;23.90;99.90;;;;;;5015267;28;20034;-65
2023/12/13 10:50:22;;;;;;;18.02;6.15;;;24.00;99.90;;;;;;5015490;28;20034;-72
2023/12/13 10:52:52;;;;;;;12.07;4.90;;;24.00;99.90;;;;;;5013745;28;20021;-73
2023/12/13 10:55:19;;;;;;;14.30;5.40;;;24.00;99.90;;;;;;5014445;28;20060;-72
2023/12/13 10:57:47;;;;;;;15.18;5.28;;;23.90;99.90;;;;;;5015447;28;20033;-73
2023/12/13 11:00:16;;;;;;;11.73;4.55;;;23.90;99.90;;;;;;5014454;28;20037;-66
2023/12/13 11:02:52;;;;;;;13.73;5.45;;;23.90;99.90;;;;;;5015959;28;20060;-72
2023/12/13 11:05:20;;;;;;;13.63;5.28;;;23.90;99.90;;;;;;5015441;28;20033;-66
2023/12/13 11:07:47;;;;;;;10.73;4.90;;;24.00;99.90;;;;;;5016412;28;20748;-66
2023/12/13 11:10:15;;;;;;;10.45;4.40;;;24.00;99.90;;;;;;5020390;28;20021;-68
2023/12/13 11:12:53;;;;;;;14.65;5.38;;;24.10;99.90;;;;;;5018784;28;20037;-68
2023/12/13 11:15:21;;;;;;;8.60;4.53;;;24.20;99.90;;;;;;5019921;28;20665;-67
2023/12/13 11:17:55;;;;;;;16.15;5.03;;;24.30;99.90;;;;;;5023815;28;20121;-70
2023/12/13 11:20:23;;;;;;;10.93;4.32;;;24.30;99.90;;;;;;5019640;28;20052;-68
2023/12/13 11:22:55;;;;;;;18.70;6.97;;;24.30;99.90;;;;;;5023111;28;20033;-70
2023/12/13 11:25:35;;;;;;;17.98;8.65;;;24.30;99.90;;;;;;5023166;28;20492;-64
2023/12/13 11:28:02;;;;;;;10.88;4.45;;;24.30;99.90;;;;;;5023018;28;20030;-65
2023/12/13 11:30:31;;;;;;;14.10;5.80;;;24.10;99.90;;;;;;5024284;28;20022;-65
2023/12/13 11:32:59;;;;;;;9.40;4.85;;;23.80;99.90;;;;;;5023080;28;20083;-70
2023/12/13 11:35:26;;;;;;;6.28;4.50;;;23.50;99.90;;;;;;5022845;28;20026;-70
2023/12/13 11:37:56;;;;;;;9.32;5.20;;;23.40;99.90;;;;;;5024932;28;20030;-64
2023/12/13 11:40:24;;;;;;;8.05;5.72;;;23.20;99.90;;;;;;5022702;28;20121;-69
2023/12/13 11:42:51;;;;;;;7.22;4.80;;;23.00;99.90;;;;;;5022936;28;20033;-68
2023/12/13 11:45:21;;;;;;;12.35;6.07;;;22.90;99.90;;;;;;5024928;28;20047;-67
2023/12/13 11:47:49;;;;;;;11.35;5.75;;;22.90;99.90;;;;;;5026414;28;20029;-68
2023/12/13 11:50:19;;;;;;;9.25;5.68;;;22.90;99.90;;;;;;5024972;28;20026;-68
2023/12/13 11:52:46;;;;;;;11.93;5.45;;;22.90;99.90;;;;;;5024508;28;20718;-66
2023/12/13 11:55:13;;;;;;;12.35;6.45;;;22.80;99.90;;;;;;5023928;28;20030;-70
2023/12/13 11:57:40;;;;;;;12.23;5.90;;;22.80;99.90;;;;;;5024924;28;20037;-65
2023/12/13 12:00:09;;;;;;;13.30;5.63;;;22.90;99.90;;;;;;5025801;28;20033;-65
2023/12/13 12:02:36;;;;;;;10.75;6.32;;;22.80;99.90;;;;;;5024559;28;20022;-69
2023/12/13 12:05:06;;;;;;;11.27;6.93;;;22.80;99.90;;;;;;5022103;28;20445;-64
2023/12/13 12:07:33;;;;;;;13.73;7.57;;;22.80;99.90;;;;;;5025423;28;20136;-69
2023/12/13 12:10:02;;;;;;;10.48;6.47;;;22.80;99.90;;;;;;5026122;28;20074;-65
2023/12/13 12:12:29;;;;;;;13.98;6.30;;;22.70;99.90;;;;;;5025890;28;20083;-68
2023/12/13 12:14:56;;;;;;;11.30;6.60;;;22.70;99.90;;;;;;5025775;28;20040;-66
2023/12/13 12:17:25;;;;;;;14.73;8.02;;;22.70;99.90;;;;;;5025087;28;20059;-71
2023/12/13 12:19:52;;;;;;;11.35;7.15;;;22.70;99.90;;;;;;5026326;28;20083;-66
2023/12/13 12:22:21;;;;;;;10.57;6.97;;;22.80;99.90;;;;;;5026332;28;20028;-70
2023/12/13 12:24:51;;;;;;;13.68;6.45;;;22.70;99.90;;;;;;5025513;28;20040;-69
2023/12/13 12:27:27;;;;;;;12.65;6.07;;;22.60;99.90;;;;;;5025732;28;20025;-71
2023/12/13 12:29:55;;;;;;;9.65;5.90;;;22.60;99.90;;;;;;5041028;28;20084;-65
2023/12/13 12:32:22;;;;;;;8.20;5.78;;;22.60;99.90;;;;;;5024722;28;20033;-70
2023/12/13 12:34:50;;;;;;;15.65;7.22;;;22.70;99.90;;;;;;5025641;28;20121;-69
2023/12/13 12:37:17;;;;;;;12.70;6.32;;;22.70;99.90;;;;;;5025478;28;20030;-65